createdAt,value
2023-03-26T00:04:04.580Z,6.27
2023-03-26T00:08:08.889Z,6.25
2023-03-26T00:12:11.623Z,6.28
2023-03-26T00:16:16.685Z,6.29
2023-03-26T00:20:21.227Z,6.31
2023-03-26T00:24:29.450Z,6.34
2023-03-26T00:28:32.111Z,6.34
2023-03-26T00:32:34.943Z,6.39
2023-03-26T00:36:38.907Z,6.36
2023-03-26T00:40:44.076Z,6.36
2023-03-26T00:44:46.702Z,6.35
2023-03-26T00:48:50.666Z,6.30
2023-03-26T00:52:55.874Z,6.27
2023-03-26T00:56:58.567Z,6.33
2023-03-26T01:01:03.722Z,6.34
2023-03-26T01:05:42.724Z,6.30
2023-03-26T01:09:50.391Z,6.32
2023-03-26T01:13:56.977Z,6.34
2023-03-26T01:17:59.571Z,6.33
2023-03-26T01:22:02.749Z,6.39
2023-03-26T01:26:14.546Z,6.45
2023-03-26T01:30:26.401Z,6.43
2023-03-26T01:34:37.360Z,6.41
2023-03-26T01:38:46.750Z,6.46
2023-03-26T01:42:57.768Z,6.42
2023-03-26T01:47:01.644Z,6.42
2023-03-26T01:51:04.877Z,6.41
2023-03-26T01:55:11.690Z,6.40
2023-03-26T01:59:33.528Z,6.33
2023-03-26T02:03:43.109Z,6.29
2023-03-26T02:07:53.918Z,6.22
2023-03-26T02:11:57.040Z,6.20
2023-03-26T02:16:03.526Z,6.17
2023-03-26T02:20:06.834Z,6.11
2023-03-26T02:24:10.045Z,6.09
2023-03-26T02:28:12.669Z,6.08
2023-03-26T02:32:19.298Z,6.07
2023-03-26T02:36:27.500Z,6.05
2023-03-26T02:40:30.278Z,6.02
2023-03-26T02:44:32.952Z,6.01
2023-03-26T02:48:36.934Z,5.94
2023-03-26T02:52:39.641Z,5.90
2023-03-26T02:56:42.266Z,5.88
2023-03-26T03:00:44.986Z,5.85
2023-03-26T03:04:48.972Z,5.83
2023-03-26T03:08:53.943Z,5.81
2023-03-26T03:12:56.629Z,5.81
2023-03-26T03:16:59.291Z,5.78
2023-03-26T03:21:03.470Z,5.71
2023-03-26T03:25:09.141Z,5.66
2023-03-26T03:29:12.106Z,5.64
2023-03-26T03:33:14.741Z,5.65
2023-03-26T03:37:19.215Z,5.62
2023-03-26T03:41:21.863Z,5.62
2023-03-26T03:45:24.548Z,5.62
2023-03-26T03:49:27.197Z,5.59
2023-03-26T03:53:31.427Z,5.52
2023-03-26T03:57:35.114Z,5.46
2023-03-26T04:01:37.773Z,5.42
2023-03-26T04:05:40.576Z,5.41
2023-03-26T04:09:44.642Z,5.39
2023-03-26T04:13:47.304Z,5.33
2023-03-26T04:17:52.131Z,5.29
2023-03-26T04:21:55.373Z,5.28
2023-03-26T04:26:04.175Z,5.23
2023-03-26T04:30:10.058Z,5.22
2023-03-26T04:34:24.200Z,5.19
2023-03-26T04:38:27.249Z,5.13
2023-03-26T04:42:33.337Z,5.09
2023-03-26T04:46:36.030Z,5.05
2023-03-26T04:50:38.744Z,5.04
2023-03-26T04:54:44.059Z,4.98
2023-03-26T04:58:50.330Z,4.91
2023-03-26T05:02:54.153Z,4.89
2023-03-26T05:06:58.966Z,4.85
2023-03-26T05:11:01.641Z,4.85
2023-03-26T05:15:06.863Z,4.86
2023-03-26T05:19:09.691Z,4.88
2023-03-26T05:23:12.356Z,4.90
2023-03-26T05:27:16.842Z,4.87
2023-03-26T05:31:22.180Z,4.83
2023-03-26T05:35:24.842Z,4.79
2023-03-26T05:39:31.901Z,4.77
2023-03-26T05:43:35.369Z,4.79
2023-03-26T05:47:39.634Z,4.76
2023-03-26T05:51:42.303Z,4.81
2023-03-26T05:55:46.773Z,4.87
2023-03-26T05:59:49.459Z,4.86
2023-03-26T06:03:53.814Z,4.99
2023-03-26T06:07:56.546Z,5.04
2023-03-26T06:11:59.177Z,5.10
2023-03-26T06:16:02.240Z,5.17
2023-03-26T06:20:09.489Z,5.29
2023-03-26T06:24:12.345Z,5.29
2023-03-26T06:28:15.906Z,5.35
2023-03-26T06:32:20.470Z,5.39
2023-03-26T06:36:25.027Z,5.47
2023-03-26T06:40:27.777Z,5.52
2023-03-26T06:44:30.418Z,5.51
2023-03-26T06:48:33.122Z,5.56
2023-03-26T06:52:37.126Z,5.59
2023-03-26T06:56:41.217Z,5.66
2023-03-26T07:00:43.998Z,5.69
2023-03-26T07:04:46.704Z,5.78
2023-03-26T07:08:50.756Z,5.87
2023-03-26T07:12:54.435Z,5.97
2023-03-26T07:16:58.502Z,6.02
2023-03-26T07:21:01.998Z,6.01
2023-03-26T07:25:07.661Z,5.98
2023-03-26T07:29:17.600Z,5.95
2023-03-26T07:33:28.946Z,5.99
2023-03-26T07:37:41.840Z,6.06
2023-03-26T07:41:48.684Z,6.15
2023-03-26T07:45:51.899Z,6.29
2023-03-26T07:49:57.821Z,6.40
2023-03-26T07:54:04.017Z,6.46
2023-03-26T07:58:22.228Z,6.52
2023-03-26T08:02:50.294Z,6.76
2023-03-26T08:06:57.182Z,7.01
2023-03-26T08:11:11.592Z,7.28
2023-03-26T08:15:22.270Z,7.35
2023-03-26T08:19:49.092Z,7.30
2023-03-26T08:24:01.755Z,7.25
2023-03-26T08:28:11.920Z,7.26
2023-03-26T08:32:18.203Z,7.30
2023-03-26T08:36:20.872Z,7.29
2023-03-26T08:41:05.873Z,7.27
2023-03-26T08:45:42.966Z,7.25
2023-03-26T08:50:27.650Z,7.25
2023-03-26T08:54:57.197Z,7.28
2023-03-26T08:59:47.639Z,7.35
2023-03-26T09:04:30.786Z,7.36
2023-03-26T09:09:00.543Z,7.33
2023-03-26T09:13:23.802Z,7.35
2023-03-26T09:17:59.794Z,7.43
2023-03-26T09:22:29.622Z,7.52
2023-03-26T09:26:47.319Z,7.58
2023-03-26T09:31:10.209Z,7.58
2023-03-26T09:35:44.826Z,7.52
2023-03-26T09:40:01.525Z,7.48
2023-03-26T09:44:41.644Z,7.44
2023-03-26T09:49:08.706Z,7.42
2023-03-26T09:53:26.543Z,7.57
2023-03-26T09:57:49.827Z,7.60
2023-03-26T10:02:06.936Z,7.64
2023-03-26T10:06:36.533Z,7.64
2023-03-26T10:10:47.165Z,7.63
2023-03-26T10:14:57.875Z,7.59
2023-03-26T10:19:28.940Z,7.56
2023-03-26T10:23:47.555Z,7.54
2023-03-26T10:28:01.393Z,7.64
2023-03-26T10:32:17.947Z,7.51
2023-03-26T10:36:29.990Z,7.45
2023-03-26T10:40:43.147Z,7.33
2023-03-26T10:45:26.026Z,7.14
2023-03-26T10:50:02.536Z,6.97
2023-03-26T10:54:16.215Z,6.86
2023-03-26T10:58:25.137Z,6.86
2023-03-26T11:02:31.138Z,6.86
2023-03-26T11:06:41.244Z,6.76
2023-03-26T11:10:55.951Z,6.79
2023-03-26T11:15:08.931Z,6.88
2023-03-26T11:19:21.929Z,6.92
2023-03-26T11:23:36.914Z,6.91
2023-03-26T11:27:56.917Z,6.84
2023-03-26T11:32:05.100Z,6.72
2023-03-26T11:36:10.908Z,6.73
2023-03-26T11:40:20.154Z,6.69
2023-03-26T11:44:29.036Z,6.66
2023-03-26T11:48:34.535Z,6.66
2023-03-26T11:52:37.445Z,6.69
2023-03-26T11:57:05.246Z,6.71
2023-03-26T12:01:17.252Z,6.66
2023-03-26T12:05:22.261Z,6.57
2023-03-26T12:09:25.848Z,6.58
2023-03-26T12:13:36.526Z,6.69
2023-03-26T12:17:42.275Z,6.81
2023-03-26T12:21:46.869Z,6.89
2023-03-26T12:26:12.169Z,6.84
2023-03-26T12:30:20.886Z,6.95
2023-03-26T12:34:34.956Z,7.08
2023-03-26T12:38:39.172Z,7.46
2023-03-26T12:44:48.895Z,7.54
2023-03-26T12:47:58.451Z,7.65
2023-03-26T12:51:45.735Z,7.63
2023-03-26T12:55:58.643Z,7.88
2023-03-26T13:00:10.790Z,8.09
2023-03-26T13:04:34.298Z,8.25
2023-03-26T13:09:08.238Z,8.31
2023-03-26T13:13:50.308Z,8.41
2023-03-26T13:18:09.316Z,8.64
2023-03-26T13:22:19.451Z,8.79
2023-03-26T13:26:38.718Z,8.93
2023-03-26T13:30:48.758Z,8.94
2023-03-26T13:35:10.122Z,8.99
2023-03-26T13:39:27.626Z,9.00
2023-03-26T13:43:39.035Z,8.90
2023-03-26T13:47:46.110Z,9.05
2023-03-26T13:51:53.152Z,9.14
2023-03-26T13:55:58.609Z,9.15
2023-03-26T14:00:06.711Z,9.21
2023-03-26T14:04:19.386Z,9.35
2023-03-26T14:08:31.689Z,9.33
2023-03-26T14:12:55.106Z,9.44
2023-03-26T14:17:03.310Z,9.44
2023-03-26T14:21:35.808Z,9.41
2023-03-26T14:25:57.961Z,9.63
2023-03-26T14:30:34.820Z,9.90
2023-03-26T14:34:52.623Z,10.10
2023-03-26T14:39:23.835Z,10.14
2023-03-26T14:44:00.951Z,10.00
2023-03-26T14:48:39.126Z,9.91
2023-03-26T14:52:48.803Z,9.78
2023-03-26T14:57:21.536Z,9.64
2023-03-26T15:01:28.729Z,9.66
2023-03-26T15:05:48.858Z,10.04
2023-03-26T15:10:26.364Z,11.22
2023-03-26T15:14:55.005Z,11.51
2023-03-26T15:19:47.314Z,10.81
2023-03-26T15:24:21.902Z,10.06
2023-03-26T15:28:59.114Z,9.92
2023-03-26T15:33:45.017Z,9.77
2023-03-26T15:38:38.538Z,9.82
2023-03-26T15:42:55.921Z,9.85
2023-03-26T15:47:17.035Z,10.28
2023-03-26T15:51:47.542Z,10.70
2023-03-26T15:56:01.862Z,10.78
2023-03-26T16:00:23.152Z,11.00
2023-03-26T16:04:50.771Z,10.68
2023-03-26T16:09:07.936Z,11.20
2023-03-26T16:13:37.719Z,11.71
2023-03-26T16:18:22.776Z,11.84
2023-03-26T16:22:45.735Z,12.03
2023-03-26T16:27:00.979Z,12.10
2023-03-26T16:31:36.867Z,11.86
2023-03-26T16:36:01.915Z,11.21
2023-03-26T16:40:34.500Z,11.38
2023-03-26T16:44:46.136Z,11.15
2023-03-26T16:48:56.457Z,11.04
2023-03-26T16:53:13.363Z,10.99
2023-03-26T16:57:28.326Z,10.83
2023-03-26T17:01:41.547Z,10.64
2023-03-26T17:06:06.590Z,10.37
2023-03-26T17:10:15.755Z,10.19
2023-03-26T17:14:36.718Z,9.99
2023-03-26T17:18:48.300Z,9.96
2023-03-26T17:22:57.793Z,9.85
2023-03-26T17:27:08.521Z,9.71
2023-03-26T17:31:21.165Z,9.52
2023-03-26T17:35:38.633Z,9.46
2023-03-26T17:40:38.711Z,9.40
2023-03-26T17:44:44.720Z,9.32
2023-03-26T17:48:54.957Z,9.25
2023-03-26T17:52:59.478Z,9.16
2023-03-26T17:57:07.805Z,9.14
2023-03-26T18:01:22.185Z,9.01
2023-03-26T18:05:30.389Z,8.94
2023-03-26T18:09:48.179Z,8.85
2023-03-26T18:14:24.839Z,8.77
2023-03-26T18:18:33.413Z,8.73
2023-03-26T18:22:37.588Z,8.53
2023-03-26T18:26:42.729Z,8.37
2023-03-26T18:30:49.647Z,8.15
2023-03-26T18:34:57.950Z,7.94
2023-03-26T18:39:04.711Z,7.75
2023-03-26T18:43:12.360Z,7.59
2023-03-26T18:47:17.508Z,7.41
2023-03-26T18:51:23.735Z,7.37
2023-03-26T18:55:30.255Z,7.38
2023-03-26T18:59:41.018Z,7.33
2023-03-26T19:03:44.690Z,7.27
2023-03-26T19:07:48.701Z,7.22
2023-03-26T19:11:57.664Z,7.26
2023-03-26T19:16:03.234Z,7.23
2023-03-26T19:20:09.915Z,7.23
2023-03-26T19:24:14.810Z,7.21
2023-03-26T19:28:23.721Z,7.23
2023-03-26T19:32:32.270Z,7.26
2023-03-26T19:36:37.023Z,7.24
2023-03-26T19:40:43.333Z,7.12
2023-03-26T19:44:47.562Z,6.98
2023-03-26T19:48:53.348Z,6.84
2023-03-26T19:53:16.899Z,6.68
2023-03-26T19:57:21.750Z,6.58
2023-03-26T20:01:28.723Z,6.42
2023-03-26T20:05:34.967Z,6.33
2023-03-26T20:09:37.757Z,6.29
2023-03-26T20:13:40.617Z,6.30
2023-03-26T20:17:44.680Z,6.31
2023-03-26T20:21:47.381Z,6.25
2023-03-26T20:25:54.436Z,6.18
2023-03-26T20:29:57.542Z,6.16
2023-03-26T20:34:01.851Z,6.09
2023-03-26T20:38:05.456Z,6.04
2023-03-26T20:42:08.329Z,5.99
2023-03-26T20:46:17.630Z,5.91
2023-03-26T20:50:24.626Z,5.81
2023-03-26T20:54:29.649Z,5.77
2023-03-26T20:58:32.564Z,5.69
2023-03-26T21:02:35.489Z,5.64
2023-03-26T21:06:39.550Z,5.60
2023-03-26T21:10:43.772Z,5.53
2023-03-26T21:14:46.927Z,5.47
2023-03-26T21:18:50.590Z,5.47
2023-03-26T21:23:00.335Z,5.47
2023-03-26T21:27:12.840Z,5.49
2023-03-26T21:31:19.604Z,5.42
2023-03-26T21:35:23.398Z,5.46
2023-03-26T21:39:28.894Z,5.41
2023-03-26T21:43:31.816Z,5.42
2023-03-26T21:47:35.343Z,5.39
2023-03-26T21:51:38.732Z,5.38
2023-03-26T21:55:55.885Z,5.35
2023-03-26T22:00:14.672Z,5.32
2023-03-26T22:04:25.580Z,5.32
2023-03-26T22:08:31.569Z,5.26
2023-03-26T22:12:36.188Z,5.28
2023-03-26T22:16:38.842Z,5.25
2023-03-26T22:20:42.650Z,5.23
2023-03-26T22:24:45.347Z,5.24
2023-03-26T22:28:50.166Z,5.23
2023-03-26T22:32:53.403Z,5.20
2023-03-26T22:36:56.299Z,5.17
2023-03-26T22:40:59.346Z,5.15
2023-03-26T22:45:04.086Z,5.13
2023-03-26T22:49:07.429Z,5.10
2023-03-26T22:53:10.380Z,5.08
2023-03-26T22:57:13.082Z,5.08
2023-03-26T23:01:20.279Z,5.08
2023-03-26T23:05:23.568Z,5.09
2023-03-26T23:09:26.380Z,5.06
2023-03-26T23:13:29.059Z,4.98
2023-03-26T23:17:35.525Z,4.98
2023-03-26T23:21:38.300Z,4.88
2023-03-26T23:25:41.486Z,4.86
2023-03-26T23:29:45.828Z,4.80
2023-03-26T23:33:50.440Z,4.74
2023-03-26T23:37:53.993Z,4.66
2023-03-26T23:41:56.706Z,4.66
2023-03-26T23:45:59.879Z,4.62
2023-03-26T23:50:05.735Z,4.61
2023-03-26T23:54:08.915Z,4.61
2023-03-26T23:58:12.037Z,4.56
